Detalii statie FERMA VISANI-IMB [000011A7]

Toti senzorii

Date Temperatura solului [C]Precipitatii [mm]Voltaj baterie [mV]Leaf Wetness [Min]HC Air temperature [C]HC Relative humidity [%]Punctul de roua [C]
medieminmaxsumaultimatimpmedieminmaxmediemediemin
2019-02-21 01:00:00 4.4 4.3 4.6 0 6122 0 3.01 2.5 4.04 0 0 0
2019-02-21 02:00:00 4.1 3.9 4.4 0 6112 0 2.7 2.32 3.14 0 0 0
2019-02-21 03:00:00 3.5 3.1 3.8 0 6112 0 0.45 -0.65 1.99 0.03 0 0
2019-02-21 04:00:00 2.8 2.5 3.1 0 6112 0 -0.83 -1.42 -0.25 62.68 -9.1 -32
2019-02-21 05:00:00 2.2 2 2.5 0 6102 0 -1.44 -1.79 -0.67 99.54 -1.3 -1.7
2019-02-21 06:00:00 1.8 1.6 2 0 6102 0 -1.81 -2.36 -1.4 100 -1.6 -2.2
2019-02-21 07:00:00 1.5 1.4 1.7 0 6102 0 -2.38 -3.05 -2.04 100 -2.2 -2.9
2019-02-21 08:00:00 1.4 1.3 1.5 0 6112 0 -1.98 -2.72 -0.74 100 -1.8 -2.6
2019-02-21 09:00:00 2.2 1.7 3.3 0 6220 55 1.23 -0.25 3.2 100 1.2 -0.1
2019-02-21 10:00:00 5 3.6 6.5 0 6308 50 5.3 3.45 7.49 54.54 0
2019-02-21 11:00:00 8 6.7 9.2 0 6288 0 9.4 8.13 10.89 1.01 0
2019-02-21 12:00:00 10.2 9.5 10.9 0 6308 0 12.43 11.01 13.49 15.9 0
2019-02-21 13:00:00 11.4 11 11.7 0 6318 0 13.55 12.87 13.97 29.29 -4.3 -9
2019-02-21 14:00:00 11.6 11.1 11.9 0 6288 0 13.69 12.69 14.43 22.21 -7.8 -11
2019-02-21 15:00:00 10.6 10 11.4 0 6230 0 12.56 12 13.23 30.58 -4.4 -6.6
2019-02-21 16:00:00 9.8 9.5 10.1 0 6210 0 12.34 12.05 12.82 33.41 -3.4 -4.1
2019-02-21 17:00:00 9.1 8.7 9.5 0 6190 0 11.47 11.1 11.9 37.77 -2.5 -4
2019-02-21 18:00:00 8.2 7.8 8.6 0 6170 0 10.28 9.42 10.92 37.02 -3.8 -5.6
2019-02-21 19:00:00 7.2 6.9 7.7 0 6162 0 8.16 7.28 9.04 34.99 -6.6 -9.1
2019-02-21 20:00:00 6.4 6.2 6.8 0 6162 0 6.01 5.26 7.34 33.3 -9 -12.9
2019-02-21 21:00:00 6 5.8 6.2 0 6152 0 5.13 5 5.33 26.17 -12.8 -14.1
2019-02-21 22:00:00 5.5 5.4 5.8 0 6142 0 4.76 4.31 5.37 25.24 -13.5 -14.8
2019-02-21 23:00:00 5.1 4.8 5.4 0 6142 0 3.96 3.11 4.35 0 0 0
2019-02-22 00:00:00 4.2 3.9 4.7 0 6142 0 1.64 0.92 2.64 0 0 0
2019-02-22 01:00:00 3.6 3.4 3.9 0 6142 0 0.88 0.53 1.39 0 0 0
2019-02-22 02:00:00 3.2 3.1 3.5 0 6132 0 0.32 -0.34 1.01 0 0 0
2019-02-22 03:00:00 2.7 2.5 2.9 0 6132 0 -0.33 -0.73 0.13 0 0 0
2019-02-22 04:00:00 2.2 2 2.5 0 6122 0 -1.64 -2.19 -0.88 0 0 0
2019-02-22 05:00:00 1.8 1.7 2 0 6122 0 -2.06 -2.41 -1.61 0 0 0
2019-02-22 06:00:00 1.5 1.4 1.7 0 6122 0 -2.58 -3.19 -2.22 0 0 0
2019-02-22 07:00:00 1.6 1.4 1.8 0 6112 0 -1.71 -2.48 -0.97 0 0 0
2019-02-22 08:00:00 1.9 1.9 2.2 0 6122 0 -0.23 -0.85 0.67 0 0 0
2019-02-22 09:00:00 2.5 2.2 3 0 6132 0 2.03 0.92 2.98 0 0 0
2019-02-22 10:00:00 3.8 3.1 4.4 0 6152 0 4.05 3.09 4.68 0 0 0
2019-02-22 11:00:00 4.7 4.5 5.1 0 6142 0 5.24 4.6 5.66 9.18 0
2019-02-22 12:00:00 5.2 5.1 5.3 0 6142 5 5.61 5.06 5.88 60.03 -2 -9.1
2019-02-22 13:00:00 5.4 5.2 5.7 0.8 6132 60 5.15 4.93 5.49 3.01 -3.2 0
2019-02-22 14:00:00 5.8 5.7 5.9 0.6 6112 60 5.28 5.05 5.49 49.24 0.3 0
2019-02-22 15:00:00 5.6 5.4 5.8 1 6122 60 4.81 4.62 5.08 98.55 4.5 2
2019-02-22 16:00:00 5.1 4.6 5.4 1.8 6122 60 3.97 1.69 4.76 100 3.9 1.6
2019-02-22 17:00:00 3.6 3.1 4.4 0.2 6112 60 0.42 -0.06 1.31 100 0.4 0
2019-02-22 18:00:00 2.5 2.3 3 0 6112 25 -0.63 -1.08 -0.14 100 -0.4 -0.9
2019-02-22 19:00:00 2 1.8 2.3 0 6092 0 -1.21 -1.46 -1.04 97.69 -1.4 -5.7
2019-02-22 20:00:00 1.5 1.4 1.8 0 6082 0 -1.67 -2.38 -1.41 48.76 -11.4 -20.2